sensor_id;sensor_type;location;lat;lon;timestamp;temperature;humidity
65692;DHT22;52411;52.716;6.696;2024-03-17T00:02:18;3.00;99.90
65692;DHT22;52411;52.716;6.696;2024-03-17T00:04:45;3.00;99.90
65692;DHT22;52411;52.716;6.696;2024-03-17T00:07:11;3.00;99.90
65692;DHT22;52411;52.716;6.696;2024-03-17T00:09:37;3.00;99.90
65692;DHT22;52411;52.716;6.696;2024-03-17T00:12:03;3.00;99.90
65692;DHT22;52411;52.716;6.696;2024-03-17T00:14:28;3.00;99.90
65692;DHT22;52411;52.716;6.696;2024-03-17T00:16:54;3.00;99.90
65692;DHT22;52411;52.716;6.696;2024-03-17T00:19:20;3.00;99.90
65692;DHT22;52411;52.716;6.696;2024-03-17T00:21:48;3.00;99.90
65692;DHT22;52411;52.716;6.696;2024-03-17T00:24:16;3.00;99.90
65692;DHT22;52411;52.716;6.696;2024-03-17T00:26:42;3.00;99.90
65692;DHT22;52411;52.716;6.696;2024-03-17T00:29:07;3.00;99.90
65692;DHT22;52411;52.716;6.696;2024-03-17T00:31:34;2.90;99.90
65692;DHT22;52411;52.716;6.696;2024-03-17T00:33:59;2.90;99.90
65692;DHT22;52411;52.716;6.696;2024-03-17T00:36:25;2.80;99.90
65692;DHT22;52411;52.716;6.696;2024-03-17T00:38:50;2.80;99.90
65692;DHT22;52411;52.716;6.696;2024-03-17T00:41:17;2.70;99.90
65692;DHT22;52411;52.716;6.696;2024-03-17T00:43:44;2.70;99.90
65692;DHT22;52411;52.716;6.696;2024-03-17T00:46:10;2.60;99.90
65692;DHT22;52411;52.716;6.696;2024-03-17T00:48:35;2.60;99.90
65692;DHT22;52411;52.716;6.696;2024-03-17T00:51:01;2.50;99.90
65692;DHT22;52411;52.716;6.696;2024-03-17T00:53:28;2.50;99.90
65692;DHT22;52411;52.716;6.696;2024-03-17T00:55:57;2.40;99.90
65692;DHT22;52411;52.716;6.696;2024-03-17T00:58:28;2.40;99.90
65692;DHT22;52411;52.716;6.696;2024-03-17T01:00:54;2.40;99.90
65692;DHT22;52411;52.716;6.696;2024-03-17T01:03:19;2.30;99.90
65692;DHT22;52411;52.716;6.696;2024-03-17T01:05:45;2.30;99.90
65692;DHT22;52411;52.716;6.696;2024-03-17T01:08:13;2.30;99.90
65692;DHT22;52411;52.716;6.696;2024-03-17T01:10:40;2.20;99.90
65692;DHT22;52411;52.716;6.696;2024-03-17T01:13:07;2.20;99.90
65692;DHT22;52411;52.716;6.696;2024-03-17T01:15:34;2.20;99.90
65692;DHT22;52411;52.716;6.696;2024-03-17T01:18:00;2.20;99.90
65692;DHT22;52411;52.716;6.696;2024-03-17T01:20:26;2.20;99.90
65692;DHT22;52411;52.716;6.696;2024-03-17T01:22:51;2.20;99.90
65692;DHT22;52411;52.716;6.696;2024-03-17T01:25:18;2.20;99.90
65692;DHT22;52411;52.716;6.696;2024-03-17T01:27:43;2.30;99.90
65692;DHT22;52411;52.716;6.696;2024-03-17T01:30:10;2.30;99.90
65692;DHT22;52411;52.716;6.696;2024-03-17T01:32:36;2.30;99.90
65692;DHT22;52411;52.716;6.696;2024-03-17T01:35:02;2.40;99.90
65692;DHT22;52411;52.716;6.696;2024-03-17T01:37:28;2.40;99.90
65692;DHT22;52411;52.716;6.696;2024-03-17T01:39:58;2.30;99.90
65692;DHT22;52411;52.716;6.696;2024-03-17T01:42:23;2.30;99.90
65692;DHT22;52411;52.716;6.696;2024-03-17T01:44:49;2.30;99.90
65692;DHT22;52411;52.716;6.696;2024-03-17T01:47:16;2.40;99.90
65692;DHT22;52411;52.716;6.696;2024-03-17T01:49:47;2.40;99.90
65692;DHT22;52411;52.716;6.696;2024-03-17T01:52:15;2.30;99.90
65692;DHT22;52411;52.716;6.696;2024-03-17T01:54:41;2.30;99.90
65692;DHT22;52411;52.716;6.696;2024-03-17T01:57:08;2.30;99.90
65692;DHT22;52411;52.716;6.696;2024-03-17T01:59:34;2.30;99.90
65692;DHT22;52411;52.716;6.696;2024-03-17T02:02:00;2.30;99.90
65692;DHT22;52411;52.716;6.696;2024-03-17T02:04:26;2.30;99.90
65692;DHT22;52411;52.716;6.696;2024-03-17T02:06:51;2.30;99.90
65692;DHT22;52411;52.716;6.696;2024-03-17T02:09:17;2.20;99.90
65692;DHT22;52411;52.716;6.696;2024-03-17T02:11:44;2.20;99.90
65692;DHT22;52411;52.716;6.696;2024-03-17T02:14:10;2.10;99.90
65692;DHT22;52411;52.716;6.696;2024-03-17T02:16:36;2.10;99.90
65692;DHT22;52411;52.716;6.696;2024-03-17T02:19:02;2.10;99.90
65692;DHT22;52411;52.716;6.696;2024-03-17T02:21:27;2.10;99.90
65692;DHT22;52411;52.716;6.696;2024-03-17T02:23:56;2.20;99.90
65692;DHT22;52411;52.716;6.696;2024-03-17T02:26:25;2.20;99.90
65692;DHT22;52411;52.716;6.696;2024-03-17T02:28:50;2.20;99.90
65692;DHT22;52411;52.716;6.696;2024-03-17T02:31:16;2.30;99.90
65692;DHT22;52411;52.716;6.696;2024-03-17T02:33:43;2.40;99.90
65692;DHT22;52411;52.716;6.696;2024-03-17T02:36:12;2.40;99.90
65692;DHT22;52411;52.716;6.696;2024-03-17T02:38:39;2.40;99.90
65692;DHT22;52411;52.716;6.696;2024-03-17T02:41:23;2.40;99.90
65692;DHT22;52411;52.716;6.696;2024-03-17T02:43:49;2.40;99.90
65692;DHT22;52411;52.716;6.696;2024-03-17T02:46:17;2.30;99.90
65692;DHT22;52411;52.716;6.696;2024-03-17T02:48:44;2.30;99.90
65692;DHT22;52411;52.716;6.696;2024-03-17T02:51:13;2.20;99.90
65692;DHT22;52411;52.716;6.696;2024-03-17T02:53:41;2.10;99.90
65692;DHT22;52411;52.716;6.696;2024-03-17T02:56:07;1.90;99.90
65692;DHT22;52411;52.716;6.696;2024-03-17T02:58:37;1.80;99.90
65692;DHT22;52411;52.716;6.696;2024-03-17T03:01:03;1.70;99.90
65692;DHT22;52411;52.716;6.696;2024-03-17T03:03:30;1.80;99.90
65692;DHT22;52411;52.716;6.696;2024-03-17T03:05:56;1.80;99.90
65692;DHT22;52411;52.716;6.696;2024-03-17T03:08:22;1.90;99.90
65692;DHT22;52411;52.716;6.696;2024-03-17T03:10:49;1.90;99.90
65692;DHT22;52411;52.716;6.696;2024-03-17T03:13:14;1.80;99.90
65692;DHT22;52411;52.716;6.696;2024-03-17T03:15:40;1.80;99.90
65692;DHT22;52411;52.716;6.696;2024-03-17T03:18:05;1.80;99.90
65692;DHT22;52411;52.716;6.696;2024-03-17T03:20:31;1.90;99.90
65692;DHT22;52411;52.716;6.696;2024-03-17T03:22:57;1.90;99.90
65692;DHT22;52411;52.716;6.696;2024-03-17T03:25:22;2.10;99.90
65692;DHT22;52411;52.716;6.696;2024-03-17T03:27:48;2.10;99.90
65692;DHT22;52411;52.716;6.696;2024-03-17T03:30:14;2.10;99.90
65692;DHT22;52411;52.716;6.696;2024-03-17T03:32:41;2.20;99.90
65692;DHT22;52411;52.716;6.696;2024-03-17T03:35:08;2.20;99.90
65692;DHT22;52411;52.716;6.696;2024-03-17T03:37:34;2.20;99.90
65692;DHT22;52411;52.716;6.696;2024-03-17T03:40:00;2.30;99.90
65692;DHT22;52411;52.716;6.696;2024-03-17T03:42:25;2.20;99.90
65692;DHT22;52411;52.716;6.696;2024-03-17T03:44:51;2.30;99.90
65692;DHT22;52411;52.716;6.696;2024-03-17T03:47:17;2.30;99.90
65692;DHT22;52411;52.716;6.696;2024-03-17T03:49:43;2.20;99.90
65692;DHT22;52411;52.716;6.696;2024-03-17T03:52:10;2.20;99.90
65692;DHT22;52411;52.716;6.696;2024-03-17T03:54:36;2.20;99.90
65692;DHT22;52411;52.716;6.696;2024-03-17T03:57:01;2.30;99.90
65692;DHT22;52411;52.716;6.696;2024-03-17T03:59:28;2.30;99.90
65692;DHT22;52411;52.716;6.696;2024-03-17T04:01:54;2.30;99.90
65692;DHT22;52411;52.716;6.696;2024-03-17T04:04:20;2.40;99.90
65692;DHT22;52411;52.716;6.696;2024-03-17T04:06:45;2.40;99.90
65692;DHT22;52411;52.716;6.696;2024-03-17T04:09:11;2.30;99.90
65692;DHT22;52411;52.716;6.696;2024-03-17T04:11:36;2.20;99.90
65692;DHT22;52411;52.716;6.696;2024-03-17T04:14:02;2.20;99.90
65692;DHT22;52411;52.716;6.696;2024-03-17T04:16:29;2.10;99.90
65692;DHT22;52411;52.716;6.696;2024-03-17T04:18:57;2.10;99.90
65692;DHT22;52411;52.716;6.696;2024-03-17T04:21:22;2.20;99.90
65692;DHT22;52411;52.716;6.696;2024-03-17T04:23:48;2.30;99.90
65692;DHT22;52411;52.716;6.696;2024-03-17T04:26:13;2.30;99.90
65692;DHT22;52411;52.716;6.696;2024-03-17T04:28:39;2.40;99.90
65692;DHT22;52411;52.716;6.696;2024-03-17T04:31:05;2.40;99.90
65692;DHT22;52411;52.716;6.696;2024-03-17T04:33:32;2.50;99.90
65692;DHT22;52411;52.716;6.696;2024-03-17T04:35:58;2.50;99.90
65692;DHT22;52411;52.716;6.696;2024-03-17T04:38:24;2.50;99.90
65692;DHT22;52411;52.716;6.696;2024-03-17T04:40:50;2.50;99.90
65692;DHT22;52411;52.716;6.696;2024-03-17T04:43:16;2.60;99.90
65692;DHT22;52411;52.716;6.696;2024-03-17T04:45:41;2.60;99.90
65692;DHT22;52411;52.716;6.696;2024-03-17T04:48:07;2.60;99.90
65692;DHT22;52411;52.716;6.696;2024-03-17T04:50:33;2.60;99.90
65692;DHT22;52411;52.716;6.696;2024-03-17T04:52:59;2.70;99.90
65692;DHT22;52411;52.716;6.696;2024-03-17T04:55:25;2.80;99.90
65692;DHT22;52411;52.716;6.696;2024-03-17T04:57:51;2.90;99.90
65692;DHT22;52411;52.716;6.696;2024-03-17T05:00:16;2.90;99.90
65692;DHT22;52411;52.716;6.696;2024-03-17T05:02:44;3.00;99.90
65692;DHT22;52411;52.716;6.696;2024-03-17T05:05:09;3.00;99.90
65692;DHT22;52411;52.716;6.696;2024-03-17T05:07:36;3.00;99.90
65692;DHT22;52411;52.716;6.696;2024-03-17T05:10:02;3.10;99.90
65692;DHT22;52411;52.716;6.696;2024-03-17T05:12:28;3.20;99.90
65692;DHT22;52411;52.716;6.696;2024-03-17T05:14:53;3.20;99.90
65692;DHT22;52411;52.716;6.696;2024-03-17T05:17:19;3.20;99.90
65692;DHT22;52411;52.716;6.696;2024-03-17T05:19:45;3.30;99.90
65692;DHT22;52411;52.716;6.696;2024-03-17T05:22:10;3.40;99.90
65692;DHT22;52411;52.716;6.696;2024-03-17T05:24:36;3.40;99.90
65692;DHT22;52411;52.716;6.696;2024-03-17T05:27:02;3.40;99.90
65692;DHT22;52411;52.716;6.696;2024-03-17T05:29:27;3.40;99.90
65692;DHT22;52411;52.716;6.696;2024-03-17T05:31:53;3.50;99.90
65692;DHT22;52411;52.716;6.696;2024-03-17T05:34:19;3.50;99.90
65692;DHT22;52411;52.716;6.696;2024-03-17T05:36:44;3.50;99.90
65692;DHT22;52411;52.716;6.696;2024-03-17T05:39:12;3.60;99.90
65692;DHT22;52411;52.716;6.696;2024-03-17T05:41:37;3.60;99.90
65692;DHT22;52411;52.716;6.696;2024-03-17T05:44:03;3.70;99.90
65692;DHT22;52411;52.716;6.696;2024-03-17T05:46:29;3.70;99.90
65692;DHT22;52411;52.716;6.696;2024-03-17T05:48:56;3.80;99.90
65692;DHT22;52411;52.716;6.696;2024-03-17T05:51:22;3.80;99.90
65692;DHT22;52411;52.716;6.696;2024-03-17T05:53:48;3.90;99.90
65692;DHT22;52411;52.716;6.696;2024-03-17T05:56:14;3.90;99.90
65692;DHT22;52411;52.716;6.696;2024-03-17T05:58:41;4.00;99.90
65692;DHT22;52411;52.716;6.696;2024-03-17T06:01:07;4.00;99.90
65692;DHT22;52411;52.716;6.696;2024-03-17T06:03:34;4.10;99.90
65692;DHT22;52411;52.716;6.696;2024-03-17T06:06:02;4.10;99.90
65692;DHT22;52411;52.716;6.696;2024-03-17T06:08:28;4.20;99.90
65692;DHT22;52411;52.716;6.696;2024-03-17T06:10:54;4.20;99.90
65692;DHT22;52411;52.716;6.696;2024-03-17T06:13:22;4.30;99.90
65692;DHT22;52411;52.716;6.696;2024-03-17T06:15:48;4.30;99.90
65692;DHT22;52411;52.716;6.696;2024-03-17T06:18:14;4.40;99.90
65692;DHT22;52411;52.716;6.696;2024-03-17T06:20:45;4.40;99.90
65692;DHT22;52411;52.716;6.696;2024-03-17T06:23:12;4.50;99.90
65692;DHT22;52411;52.716;6.696;2024-03-17T06:25:45;4.60;99.90
65692;DHT22;52411;52.716;6.696;2024-03-17T06:28:13;4.70;99.90
65692;DHT22;52411;52.716;6.696;2024-03-17T06:30:46;4.70;99.90
65692;DHT22;52411;52.716;6.696;2024-03-17T06:33:16;4.90;99.90
65692;DHT22;52411;52.716;6.696;2024-03-17T06:35:46;5.00;99.90
65692;DHT22;52411;52.716;6.696;2024-03-17T06:38:15;5.10;99.90
65692;DHT22;52411;52.716;6.696;2024-03-17T06:40:41;5.20;99.90
65692;DHT22;52411;52.716;6.696;2024-03-17T06:43:06;5.20;99.90
65692;DHT22;52411;52.716;6.696;2024-03-17T06:45:33;5.30;99.90
65692;DHT22;52411;52.716;6.696;2024-03-17T06:47:59;5.40;99.90
65692;DHT22;52411;52.716;6.696;2024-03-17T06:50:24;5.40;99.90
65692;DHT22;52411;52.716;6.696;2024-03-17T06:52:50;5.50;99.90
65692;DHT22;52411;52.716;6.696;2024-03-17T06:55:18;5.50;99.90
65692;DHT22;52411;52.716;6.696;2024-03-17T06:57:44;5.50;99.90
65692;DHT22;52411;52.716;6.696;2024-03-17T07:00:13;5.50;99.90
65692;DHT22;52411;52.716;6.696;2024-03-17T07:02:43;5.60;99.90
65692;DHT22;52411;52.716;6.696;2024-03-17T07:05:13;5.60;99.90
65692;DHT22;52411;52.716;6.696;2024-03-17T07:07:42;5.60;99.90
65692;DHT22;52411;52.716;6.696;2024-03-17T07:10:08;5.60;99.90
65692;DHT22;52411;52.716;6.696;2024-03-17T07:12:34;5.70;99.90
65692;DHT22;52411;52.716;6.696;2024-03-17T07:15:03;5.60;99.90
65692;DHT22;52411;52.716;6.696;2024-03-17T07:17:28;5.70;99.90
65692;DHT22;52411;52.716;6.696;2024-03-17T07:19:54;5.70;99.90
65692;DHT22;52411;52.716;6.696;2024-03-17T07:22:19;5.70;99.90
65692;DHT22;52411;52.716;6.696;2024-03-17T07:24:47;5.70;99.90
65692;DHT22;52411;52.716;6.696;2024-03-17T07:27:13;5.70;99.90
65692;DHT22;52411;52.716;6.696;2024-03-17T07:29:40;5.70;99.90
65692;DHT22;52411;52.716;6.696;2024-03-17T07:32:06;5.70;99.90
65692;DHT22;52411;52.716;6.696;2024-03-17T07:34:32;5.70;99.90
65692;DHT22;52411;52.716;6.696;2024-03-17T07:36:58;5.80;99.90
65692;DHT22;52411;52.716;6.696;2024-03-17T07:39:29;5.80;99.90
65692;DHT22;52411;52.716;6.696;2024-03-17T07:42:01;5.80;99.90
65692;DHT22;52411;52.716;6.696;2024-03-17T07:44:30;5.90;99.90
65692;DHT22;52411;52.716;6.696;2024-03-17T07:47:03;6.00;99.90
65692;DHT22;52411;52.716;6.696;2024-03-17T07:49:31;6.10;99.90
65692;DHT22;52411;52.716;6.696;2024-03-17T07:51:57;6.10;99.90
65692;DHT22;52411;52.716;6.696;2024-03-17T07:54:24;6.20;99.90
65692;DHT22;52411;52.716;6.696;2024-03-17T07:56:49;6.30;99.90
65692;DHT22;52411;52.716;6.696;2024-03-17T07:59:15;6.30;99.90
65692;DHT22;52411;52.716;6.696;2024-03-17T08:01:43;6.50;99.90
65692;DHT22;52411;52.716;6.696;2024-03-17T08:04:09;6.60;99.90
65692;DHT22;52411;52.716;6.696;2024-03-17T08:06:39;6.60;99.90
65692;DHT22;52411;52.716;6.696;2024-03-17T08:09:08;6.80;99.90
65692;DHT22;52411;52.716;6.696;2024-03-17T08:11:38;7.00;99.90
65692;DHT22;52411;52.716;6.696;2024-03-17T08:14:04;7.10;99.90
65692;DHT22;52411;52.716;6.696;2024-03-17T08:16:31;7.20;99.90
65692;DHT22;52411;52.716;6.696;2024-03-17T08:18:57;7.40;99.90
65692;DHT22;52411;52.716;6.696;2024-03-17T08:21:22;7.40;99.90
65692;DHT22;52411;52.716;6.696;2024-03-17T08:23:48;7.50;99.90
65692;DHT22;52411;52.716;6.696;2024-03-17T08:26:14;7.60;99.90
65692;DHT22;52411;52.716;6.696;2024-03-17T08:28:39;7.70;99.90
65692;DHT22;52411;52.716;6.696;2024-03-17T08:31:05;7.90;99.90
65692;DHT22;52411;52.716;6.696;2024-03-17T08:33:31;8.10;99.90
65692;DHT22;52411;52.716;6.696;2024-03-17T08:36:00;8.30;99.90
65692;DHT22;52411;52.716;6.696;2024-03-17T08:38:28;8.60;99.90
65692;DHT22;52411;52.716;6.696;2024-03-17T08:40:55;8.70;99.90
65692;DHT22;52411;52.716;6.696;2024-03-17T08:43:21;8.90;99.90
65692;DHT22;52411;52.716;6.696;2024-03-17T08:45:58;9.00;99.90
65692;DHT22;52411;52.716;6.696;2024-03-17T08:48:26;9.10;99.90
65692;DHT22;52411;52.716;6.696;2024-03-17T08:50:53;9.10;99.90
65692;DHT22;52411;52.716;6.696;2024-03-17T08:53:19;9.10;99.90
65692;DHT22;52411;52.716;6.696;2024-03-17T08:55:45;9.10;99.90
65692;DHT22;52411;52.716;6.696;2024-03-17T08:58:11;9.10;99.90
65692;DHT22;52411;52.716;6.696;2024-03-17T09:00:37;9.10;99.90
65692;DHT22;52411;52.716;6.696;2024-03-17T09:03:03;9.10;99.90
65692;DHT22;52411;52.716;6.696;2024-03-17T09:05:29;9.10;99.90
65692;DHT22;52411;52.716;6.696;2024-03-17T09:07:54;9.20;99.90
65692;DHT22;52411;52.716;6.696;2024-03-17T09:10:21;9.10;99.90
65692;DHT22;52411;52.716;6.696;2024-03-17T09:12:46;9.20;99.90
65692;DHT22;52411;52.716;6.696;2024-03-17T09:15:13;9.20;99.90
65692;DHT22;52411;52.716;6.696;2024-03-17T09:17:40;9.30;99.90
65692;DHT22;52411;52.716;6.696;2024-03-17T09:20:06;9.30;99.90
65692;DHT22;52411;52.716;6.696;2024-03-17T09:22:37;9.50;99.90
65692;DHT22;52411;52.716;6.696;2024-03-17T09:25:06;9.60;99.90
65692;DHT22;52411;52.716;6.696;2024-03-17T09:27:33;9.70;99.90
65692;DHT22;52411;52.716;6.696;2024-03-17T09:30:00;9.80;99.90
65692;DHT22;52411;52.716;6.696;2024-03-17T09:32:25;9.90;99.90
65692;DHT22;52411;52.716;6.696;2024-03-17T09:34:51;10.00;99.90
65692;DHT22;52411;52.716;6.696;2024-03-17T09:37:16;10.20;99.90
65692;DHT22;52411;52.716;6.696;2024-03-17T09:39:42;10.40;99.90
65692;DHT22;52411;52.716;6.696;2024-03-17T09:42:17;10.50;99.90
65692;DHT22;52411;52.716;6.696;2024-03-17T09:44:46;10.50;99.90
65692;DHT22;52411;52.716;6.696;2024-03-17T09:47:18;10.70;99.90
65692;DHT22;52411;52.716;6.696;2024-03-17T09:49:45;10.80;99.90
65692;DHT22;52411;52.716;6.696;2024-03-17T09:52:20;10.80;99.90
65692;DHT22;52411;52.716;6.696;2024-03-17T09:54:46;10.80;99.90
65692;DHT22;52411;52.716;6.696;2024-03-17T09:57:16;10.90;99.90
65692;DHT22;52411;52.716;6.696;2024-03-17T09:59:42;11.00;99.90
65692;DHT22;52411;52.716;6.696;2024-03-17T10:02:16;11.00;99.90
65692;DHT22;52411;52.716;6.696;2024-03-17T10:04:43;11.20;99.90
65692;DHT22;52411;52.716;6.696;2024-03-17T10:07:09;11.30;99.90
65692;DHT22;52411;52.716;6.696;2024-03-17T10:09:40;11.50;99.90
65692;DHT22;52411;52.716;6.696;2024-03-17T10:12:28;11.50;99.90
65692;DHT22;52411;52.716;6.696;2024-03-17T10:15:00;11.60;99.90
65692;DHT22;52411;52.716;6.696;2024-03-17T10:17:30;11.60;99.90
65692;DHT22;52411;52.716;6.696;2024-03-17T10:20:18;11.60;99.90
65692;DHT22;52411;52.716;6.696;2024-03-17T10:23:07;11.80;99.90
65692;DHT22;52411;52.716;6.696;2024-03-17T10:25:39;11.80;99.90
65692;DHT22;52411;52.716;6.696;2024-03-17T10:28:14;11.80;99.90
65692;DHT22;52411;52.716;6.696;2024-03-17T10:30:41;12.00;99.90
65692;DHT22;52411;52.716;6.696;2024-03-17T10:33:19;12.00;99.90
65692;DHT22;52411;52.716;6.696;2024-03-17T10:35:48;12.00;99.90
65692;DHT22;52411;52.716;6.696;2024-03-17T10:38:14;12.10;99.90
65692;DHT22;52411;52.716;6.696;2024-03-17T10:40:41;12.10;99.90
65692;DHT22;52411;52.716;6.696;2024-03-17T10:43:06;12.10;99.90
65692;DHT22;52411;52.716;6.696;2024-03-17T10:45:33;12.20;99.90
65692;DHT22;52411;52.716;6.696;2024-03-17T10:48:07;12.30;99.90
65692;DHT22;52411;52.716;6.696;2024-03-17T10:50:36;12.50;99.90
65692;DHT22;52411;52.716;6.696;2024-03-17T10:53:04;12.50;99.90
65692;DHT22;52411;52.716;6.696;2024-03-17T10:55:44;12.60;99.90
65692;DHT22;52411;52.716;6.696;2024-03-17T10:58:33;12.70;99.90
65692;DHT22;52411;52.716;6.696;2024-03-17T11:01:01;12.60;99.90
65692;DHT22;52411;52.716;6.696;2024-03-17T11:03:32;12.60;99.90
65692;DHT22;52411;52.716;6.696;2024-03-17T11:05:59;12.70;99.90
65692;DHT22;52411;52.716;6.696;2024-03-17T11:08:26;12.60;99.90
65692;DHT22;52411;52.716;6.696;2024-03-17T11:10:53;12.60;99.90
65692;DHT22;52411;52.716;6.696;2024-03-17T11:13:24;12.50;99.90
65692;DHT22;52411;52.716;6.696;2024-03-17T11:15:51;12.50;99.90
65692;DHT22;52411;52.716;6.696;2024-03-17T11:21:05;12.30;99.90
65692;DHT22;52411;52.716;6.696;2024-03-17T11:23:38;12.30;99.90
65692;DHT22;52411;52.716;6.696;2024-03-17T11:26:05;12.10;99.90
65692;DHT22;52411;52.716;6.696;2024-03-17T11:28:57;12.10;99.90
65692;DHT22;52411;52.716;6.696;2024-03-17T11:31:44;12.00;99.90
65692;DHT22;52411;52.716;6.696;2024-03-17T11:34:33;12.00;99.90
65692;DHT22;52411;52.716;6.696;2024-03-17T11:37:03;11.90;99.90
65692;DHT22;52411;52.716;6.696;2024-03-17T11:39:49;11.90;99.90
65692;DHT22;52411;52.716;6.696;2024-03-17T11:42:16;11.80;99.90
65692;DHT22;52411;52.716;6.696;2024-03-17T11:44:43;11.80;99.90
65692;DHT22;52411;52.716;6.696;2024-03-17T11:47:08;11.80;99.90
65692;DHT22;52411;52.716;6.696;2024-03-17T11:52:11;11.90;99.90
65692;DHT22;52411;52.716;6.696;2024-03-17T11:54:48;12.00;99.90
65692;DHT22;52411;52.716;6.696;2024-03-17T11:57:24;12.00;99.90
65692;DHT22;52411;52.716;6.696;2024-03-17T11:59:50;11.90;99.90
65692;DHT22;52411;52.716;6.696;2024-03-17T12:04:52;12.00;99.90
65692;DHT22;52411;52.716;6.696;2024-03-17T12:07:19;12.10;99.90
65692;DHT22;52411;52.716;6.696;2024-03-17T12:09:46;12.10;99.90
65692;DHT22;52411;52.716;6.696;2024-03-17T12:12:20;12.10;99.90
65692;DHT22;52411;52.716;6.696;2024-03-17T12:14:47;12.10;99.90
65692;DHT22;52411;52.716;6.696;2024-03-17T12:17:15;12.20;99.90
65692;DHT22;52411;52.716;6.696;2024-03-17T12:19:45;12.20;99.90
65692;DHT22;52411;52.716;6.696;2024-03-17T12:22:21;12.10;99.90
65692;DHT22;52411;52.716;6.696;2024-03-17T12:24:49;12.20;99.90
65692;DHT22;52411;52.716;6.696;2024-03-17T12:27:23;12.10;99.90
65692;DHT22;52411;52.716;6.696;2024-03-17T12:29:52;12.10;99.90
65692;DHT22;52411;52.716;6.696;2024-03-17T12:32:20;12.10;99.90
65692;DHT22;52411;52.716;6.696;2024-03-17T12:34:56;12.20;99.90
65692;DHT22;52411;52.716;6.696;2024-03-17T12:37:26;12.20;99.90
65692;DHT22;52411;52.716;6.696;2024-03-17T12:39:59;12.30;99.90
65692;DHT22;52411;52.716;6.696;2024-03-17T12:42:26;12.40;99.90
65692;DHT22;52411;52.716;6.696;2024-03-17T12:44:54;12.50;99.90
65692;DHT22;52411;52.716;6.696;2024-03-17T12:49:47;12.60;99.90
65692;DHT22;52411;52.716;6.696;2024-03-17T12:55:09;12.60;99.90
65692;DHT22;52411;52.716;6.696;2024-03-17T12:58:06;12.60;99.90
65692;DHT22;52411;52.716;6.696;2024-03-17T13:00:57;12.60;99.90
65692;DHT22;52411;52.716;6.696;2024-03-17T13:03:25;12.60;99.90
65692;DHT22;52411;52.716;6.696;2024-03-17T13:05:51;12.60;99.90
65692;DHT22;52411;52.716;6.696;2024-03-17T13:08:17;12.60;99.90
65692;DHT22;52411;52.716;6.696;2024-03-17T13:10:43;12.70;99.90
65692;DHT22;52411;52.716;6.696;2024-03-17T13:13:09;12.70;99.90
65692;DHT22;52411;52.716;6.696;2024-03-17T13:15:35;12.70;99.90
65692;DHT22;52411;52.716;6.696;2024-03-17T13:18:05;12.70;99.90
65692;DHT22;52411;52.716;6.696;2024-03-17T13:20:31;12.80;99.90
65692;DHT22;52411;52.716;6.696;2024-03-17T13:22:57;12.70;99.90
65692;DHT22;52411;52.716;6.696;2024-03-17T13:25:26;12.80;99.90
65692;DHT22;52411;52.716;6.696;2024-03-17T13:27:55;12.80;99.90
65692;DHT22;52411;52.716;6.696;2024-03-17T13:30:22;12.80;99.90
65692;DHT22;52411;52.716;6.696;2024-03-17T13:32:49;12.80;99.90
65692;DHT22;52411;52.716;6.696;2024-03-17T13:35:22;12.70;99.90
65692;DHT22;52411;52.716;6.696;2024-03-17T13:37:51;12.70;99.90
65692;DHT22;52411;52.716;6.696;2024-03-17T13:40:18;12.70;99.90
65692;DHT22;52411;52.716;6.696;2024-03-17T13:42:52;12.70;99.90
65692;DHT22;52411;52.716;6.696;2024-03-17T13:45:21;12.70;99.90
65692;DHT22;52411;52.716;6.696;2024-03-17T13:47:56;12.80;99.90
65692;DHT22;52411;52.716;6.696;2024-03-17T13:50:22;12.70;99.90
65692;DHT22;52411;52.716;6.696;2024-03-17T13:52:48;12.80;99.90
65692;DHT22;52411;52.716;6.696;2024-03-17T13:55:14;12.80;99.90
65692;DHT22;52411;52.716;6.696;2024-03-17T13:57:42;12.80;99.90
65692;DHT22;52411;52.716;6.696;2024-03-17T14:00:08;12.80;99.90
65692;DHT22;52411;52.716;6.696;2024-03-17T14:02:34;12.80;99.90
65692;DHT22;52411;52.716;6.696;2024-03-17T14:05:00;12.70;99.90
65692;DHT22;52411;52.716;6.696;2024-03-17T14:07:27;12.80;99.90
65692;DHT22;52411;52.716;6.696;2024-03-17T14:09:53;12.70;99.90
65692;DHT22;52411;52.716;6.696;2024-03-17T14:12:18;12.70;99.90
65692;DHT22;52411;52.716;6.696;2024-03-17T14:14:44;12.70;99.90
65692;DHT22;52411;52.716;6.696;2024-03-17T14:17:09;12.60;99.90
65692;DHT22;52411;52.716;6.696;2024-03-17T14:19:35;12.60;99.90
65692;DHT22;52411;52.716;6.696;2024-03-17T14:22:01;12.60;99.90
65692;DHT22;52411;52.716;6.696;2024-03-17T14:24:26;12.60;99.90
65692;DHT22;52411;52.716;6.696;2024-03-17T14:26:52;12.60;99.90
65692;DHT22;52411;52.716;6.696;2024-03-17T14:29:18;12.50;99.90
65692;DHT22;52411;52.716;6.696;2024-03-17T14:31:43;12.50;99.90
65692;DHT22;52411;52.716;6.696;2024-03-17T14:34:11;12.50;99.90
65692;DHT22;52411;52.716;6.696;2024-03-17T14:36:37;12.50;99.90
65692;DHT22;52411;52.716;6.696;2024-03-17T14:39:03;12.50;99.90
65692;DHT22;52411;52.716;6.696;2024-03-17T14:41:29;12.50;99.90
65692;DHT22;52411;52.716;6.696;2024-03-17T14:43:56;12.50;99.90
65692;DHT22;52411;52.716;6.696;2024-03-17T14:46:23;12.50;99.90
65692;DHT22;52411;52.716;6.696;2024-03-17T14:48:48;12.40;99.90
65692;DHT22;52411;52.716;6.696;2024-03-17T14:51:19;12.40;99.90
65692;DHT22;52411;52.716;6.696;2024-03-17T14:53:49;12.40;99.90
65692;DHT22;52411;52.716;6.696;2024-03-17T14:56:19;12.40;99.90
65692;DHT22;52411;52.716;6.696;2024-03-17T14:58:46;12.40;99.90
65692;DHT22;52411;52.716;6.696;2024-03-17T15:01:13;12.30;99.90
65692;DHT22;52411;52.716;6.696;2024-03-17T15:03:39;12.30;99.90
65692;DHT22;52411;52.716;6.696;2024-03-17T15:06:15;12.20;99.90
65692;DHT22;52411;52.716;6.696;2024-03-17T15:08:44;12.20;99.90
65692;DHT22;52411;52.716;6.696;2024-03-17T15:11:10;12.30;99.90
65692;DHT22;52411;52.716;6.696;2024-03-17T15:13:36;12.30;99.90
65692;DHT22;52411;52.716;6.696;2024-03-17T15:16:05;12.20;99.90
65692;DHT22;52411;52.716;6.696;2024-03-17T15:18:34;12.20;99.90
65692;DHT22;52411;52.716;6.696;2024-03-17T15:21:03;12.20;99.90
65692;DHT22;52411;52.716;6.696;2024-03-17T15:23:31;12.20;99.90
65692;DHT22;52411;52.716;6.696;2024-03-17T15:26:01;12.20;99.90
65692;DHT22;52411;52.716;6.696;2024-03-17T15:28:32;12.20;99.90
65692;DHT22;52411;52.716;6.696;2024-03-17T15:30:58;12.20;99.90
65692;DHT22;52411;52.716;6.696;2024-03-17T15:33:26;12.20;99.90
65692;DHT22;52411;52.716;6.696;2024-03-17T15:35:51;12.20;99.90
65692;DHT22;52411;52.716;6.696;2024-03-17T15:38:17;12.20;99.90
65692;DHT22;52411;52.716;6.696;2024-03-17T15:40:43;12.10;99.90
65692;DHT22;52411;52.716;6.696;2024-03-17T15:43:09;12.10;99.90
65692;DHT22;52411;52.716;6.696;2024-03-17T15:45:35;12.10;99.90
65692;DHT22;52411;52.716;6.696;2024-03-17T15:48:04;12.10;99.90
65692;DHT22;52411;52.716;6.696;2024-03-17T15:50:30;12.00;99.90
65692;DHT22;52411;52.716;6.696;2024-03-17T15:52:56;12.00;99.90
65692;DHT22;52411;52.716;6.696;2024-03-17T15:55:22;12.00;99.90
65692;DHT22;52411;52.716;6.696;2024-03-17T15:57:49;12.00;99.90